Terminal Aerodrome Forecast
Issued by NWS Wilmington, OH

Current Version | Previous Version | Graphics & Text | Print | Product List | Glossary On
Versions: 1 2 3 4 5 6 7 8 9 10 11 12 13 14 15 16 17 18 19 20 21 22 23 24 25
404
FTUS41 KILN 191744
TAFDAY
TAF
KDAY 191744Z 1918/2018 22010KT P6SM SCT020 BKN035
      TEMPO 1918/1922 1SM -TSRA BKN020CB
     FM192200 23008KT P6SM BKN040
     FM200100 24005KT P6SM FEW030 SCT100
     FM200600 28004KT P6SM SCT025
     FM201000 29003KT 5SM BR SCT020 BKN250
     FM201300 26004KT P6SM SCT030 BKN250=

USA.gov is the U.S. government's official web portal to all federal, state and local government web resources and services.